Time;durP1;ratioP1;P1;durP2;ratioP2;P2;SDS_P1;SDS_P2;PMS_P1;PMS_P2;Temp;Humidity;BMP_temperature;BMP_pressure;BME280_temperature;BME280_humidity;BME280_pressure;Samples;Min_cycle;Max_cycle;Signal;HPM_P1;HPM_P2
2022/10/30 00:01:26;;;;;;;23.55;11.85;;;;;;;;;;6218618;23;20008;-71
2022/10/30 00:03:52;;;;;;;26.90;12.68;;;;;;;;;;6218473;23;20012;-71
2022/10/30 00:06:18;;;;;;;26.85;12.02;;;;;;;;;;6218494;23;20073;-71
2022/10/30 00:08:44;;;;;;;19.25;11.85;;;;;;;;;;6218368;23;20442;-71
2022/10/30 00:11:11;;;;;;;24.58;11.70;;;;;;;;;;6218439;23;20020;-70
2022/10/30 00:13:37;;;;;;;27.48;12.43;;;;;;;;;;6218607;23;20012;-70
2022/10/30 00:16:07;;;;;;;23.08;11.02;;;;;;;;;;6218466;23;20042;-70
2022/10/30 00:18:37;;;;;;;21.17;11.45;;;;;;;;;;6218514;23;20008;-70
2022/10/30 00:21:07;;;;;;;23.48;10.93;;;;;;;;;;6218409;23;20019;-70
2022/10/30 00:23:34;;;;;;;32.50;11.00;;;;;;;;;;6218269;23;20465;-71
2022/10/30 00:26:04;;;;;;;21.92;10.60;;;;;;;;;;6218154;23;20018;-71
2022/10/30 00:28:30;;;;;;;26.00;11.68;;;;;;;;;;6218477;23;20023;-71
2022/10/30 00:31:00;;;;;;;23.02;10.93;;;;;;;;;;6218319;23;20091;-71
2022/10/30 00:33:26;;;;;;;22.88;10.55;;;;;;;;;;6218495;23;20085;-71
2022/10/30 00:35:53;;;;;;;23.23;11.05;;;;;;;;;;6245585;23;20016;-71
2022/10/30 00:38:19;;;;;;;27.98;11.60;;;;;;;;;;6218381;23;20016;-71
2022/10/30 00:40:45;;;;;;;21.95;11.52;;;;;;;;;;6218374;23;20022;-71
2022/10/30 00:43:29;;;;;;;29.77;11.65;;;;;;;;;;6218476;23;20087;-71
2022/10/30 00:45:56;;;;;;;21.48;10.25;;;;;;;;;;6218412;23;20023;-71
2022/10/30 00:48:24;;;;;;;23.20;11.77;;;;;;;;;;6245238;23;20024;-71
2022/10/30 00:50:50;;;;;;;20.95;11.25;;;;;;;;;;6218253;23;20445;-71
2022/10/30 00:53:17;;;;;;;29.80;10.90;;;;;;;;;;6218119;23;20027;-71
2022/10/30 00:55:48;;;;;;;30.05;11.45;;;;;;;;;;6218345;23;20465;-71
2022/10/30 00:58:15;;;;;;;22.90;10.73;;;;;;;;;;6245395;23;20074;-71
2022/10/30 01:00:45;;;;;;;23.15;11.98;;;;;;;;;;6218149;23;20441;-72
2022/10/30 01:03:12;;;;;;;23.30;10.43;;;;;;;;;;6218280;23;20023;-71
2022/10/30 01:05:38;;;;;;;33.35;12.40;;;;;;;;;;6218338;23;20174;-71
2022/10/30 01:08:04;;;;;;;28.45;11.68;;;;;;;;;;6219251;23;20450;-71
2022/10/30 01:10:31;;;;;;;27.40;12.27;;;;;;;;;;6220149;23;20508;-71
2022/10/30 01:12:58;;;;;;;31.25;11.73;;;;;;;;;;6246997;23;20051;-71
2022/10/30 01:15:30;;;;;;;23.45;11.48;;;;;;;;;;6219766;23;20042;-71
2022/10/30 01:18:09;;;;;;;22.93;10.53;;;;;;;;;;6220338;23;20012;-71
2022/10/30 01:20:56;;;;;;;25.58;10.23;;;;;;;;;;6219960;23;20027;-71
2022/10/30 01:23:34;;;;;;;21.77;11.07;;;;;;;;;;6193548;23;20012;-71
2022/10/30 01:26:23;;;;;;;21.67;10.82;;;;;;;;;;6219996;23;20017;-71
2022/10/30 01:29:02;;;;;;;20.42;10.38;;;;;;;;;;6220034;23;20087;-71
2022/10/30 01:31:28;;;;;;;21.77;10.20;;;;;;;;;;6219935;23;20093;-71
2022/10/30 01:34:14;;;;;;;27.92;11.32;;;;;;;;;;6219614;23;20461;-71
2022/10/30 01:36:44;;;;;;;24.83;10.98;;;;;;;;;;6219946;23;20020;-71
2022/10/30 01:39:12;;;;;;;22.95;10.93;;;;;;;;;;6219827;23;20457;-70
2022/10/30 01:41:39;;;;;;;20.52;10.95;;;;;;;;;;6219742;23;20020;-71
2022/10/30 01:44:08;;;;;;;25.30;10.75;;;;;;;;;;6219863;23;20083;-71
2022/10/30 01:46:53;;;;;;;17.95;11.02;;;;;;;;;;6219696;23;20016;-71
2022/10/30 01:49:35;;;;;;;32.63;12.13;;;;;;;;;;6219793;23;20016;-71
2022/10/30 01:52:10;;;;;;;31.83;11.63;;;;;;;;;;6219489;23;20012;-71
2022/10/30 01:54:42;;;;;;;21.48;9.65;;;;;;;;;;6219672;23;20016;-71
2022/10/30 01:57:22;;;;;;;23.58;11.00;;;;;;;;;;6219749;23;20095;-70
2022/10/30 02:00:08;;;;;;;25.13;11.52;;;;;;;;;;6219666;23;20012;-70
2022/10/30 02:02:34;;;;;;;20.70;10.52;;;;;;;;;;6219500;23;20012;-71
2022/10/30 02:05:01;;;;;;;25.15;10.25;;;;;;;;;;6219451;23;20016;-71
2022/10/30 02:07:27;;;;;;;24.23;11.18;;;;;;;;;;6219583;23;20028;-71
2022/10/30 02:09:54;;;;;;;24.48;11.77;;;;;;;;;;6219505;23;20012;-71
2022/10/30 02:12:20;;;;;;;25.85;11.82;;;;;;;;;;6219322;23;20084;-71
2022/10/30 02:14:50;;;;;;;23.60;10.80;;;14.20;99.90;;;;;;6219397;23;20394;-71
2022/10/30 02:17:17;;;;;;;24.98;11.27;;;;;;;;;;6244720;22;20016;-71
2022/10/30 02:19:43;;;;;;;21.55;11.13;;;;;;;;;;6218970;23;20062;-71
2022/10/30 02:22:10;;;;;;;26.98;11.20;;;;;;;;;;6219304;23;20066;-71
2022/10/30 02:24:36;;;;;;;24.77;11.00;;;;;;;;;;6219438;23;20462;-71
2022/10/30 02:27:02;;;;;;;20.20;10.43;;;;;;;;;;6194226;23;20012;-71
2022/10/30 02:29:28;;;;;;;19.98;11.02;;;;;;;;;;6219404;23;20062;-71
2022/10/30 02:31:54;;;;;;;31.15;10.93;;;;;;;;;;6219366;23;20020;-71
2022/10/30 02:34:21;;;;;;;27.08;11.68;;;;;;;;;;6219170;23;20023;-71
2022/10/30 02:36:47;;;;;;;22.13;10.77;;;;;;;;;;6194325;23;20016;-71
2022/10/30 02:39:13;;;;;;;19.92;10.30;;;;;;;;;;6219333;23;20020;-71
2022/10/30 02:41:39;;;;;;;23.73;10.93;;;;;;;;;;6219254;23;20154;-71
2022/10/30 02:44:05;;;;;;;19.77;10.00;;;;;;;;;;6219293;23;20044;-71
2022/10/30 02:46:32;;;;;;;20.45;11.63;;;;;;;;;;6219054;23;20023;-71
2022/10/30 02:48:58;;;;;;;23.92;10.40;;;;;;;;;;6219259;23;20058;-71
2022/10/30 02:51:24;;;;;;;28.23;10.77;;;;;;;;;;6219030;23;20087;-71
2022/10/30 02:53:50;;;;;;;20.38;11.13;;;;;;;;;;6218893;23;20012;-71
2022/10/30 02:56:16;;;;;;;27.02;11.25;;;;;;;;;;6218867;23;20470;-71
2022/10/30 02:58:42;;;;;;;26.58;10.80;;;;;;;;;;6219012;23;20039;-71
2022/10/30 03:01:13;;;;;;;28.83;11.38;;;;;;;;;;6218991;23;20016;-71
2022/10/30 03:03:40;;;;;;;20.10;11.80;;;;;;;;;;6218956;23;20338;-71
2022/10/30 03:06:07;;;;;;;27.95;10.70;;;;;;;;;;6218984;23;20375;-71
2022/10/30 03:08:34;;;;;;;22.45;11.15;;;;;;;;;;6218714;23;20027;-70
2022/10/30 03:11:00;;;;;;;25.42;10.90;;;;;;;;;;6218843;23;20016;-70
2022/10/30 03:13:28;;;;;;;21.05;11.13;;;;;;;;;;6218757;23;20020;-70
2022/10/30 03:15:59;;;;;;;23.30;11.30;;;;;;;;;;6218794;23;20020;-70
2022/10/30 03:18:25;;;;;;;28.83;11.13;;;;;;;;;;6218928;23;20338;-70
2022/10/30 03:20:55;;;;;;;25.50;11.50;;;;;;;;;;6193707;23;20019;-70
2022/10/30 03:23:21;;;;;;;25.00;12.00;;;;;;;;;;6218784;23;20050;-70
2022/10/30 03:25:47;;;;;;;28.25;12.70;;;;;;;;;;6193617;23;20020;-70
2022/10/30 03:28:13;;;;;;;24.88;10.70;;;;;;;;;;6193612;23;20016;-71
2022/10/30 03:30:39;;;;;;;21.40;11.48;;;;;;;;;;6193678;23;20024;-71
2022/10/30 03:33:05;;;;;;;27.08;11.82;;;;;;;;;;6218686;23;20451;-71
2022/10/30 03:35:31;;;;;;;30.10;11.80;;;;;;;;;;6193520;23;20020;-71
2022/10/30 03:37:57;;;;;;;24.20;11.68;;;;;;;;;;6245522;23;20039;-71
2022/10/30 03:40:23;;;;;;;26.90;11.52;;;;;;;;;;6218738;23;20012;-71
2022/10/30 03:42:49;;;;;;;27.67;11.80;;;;;;;;;;6193705;23;20084;-70
2022/10/30 03:45:15;;;;;;;24.35;11.60;;;;;;;;;;6218791;23;20342;-70
2022/10/30 03:47:41;;;;;;;27.85;12.75;;;;;;;;;;6218519;23;20024;-71
2022/10/30 03:50:07;;;;;;;33.75;12.07;;;;;;;;;;6193525;23;20020;-71
2022/10/30 03:52:33;;;;;;;25.35;11.32;;;;;;;;;;6218311;23;20027;-71
2022/10/30 03:55:00;;;;;;;24.63;11.80;;;;;;;;;;6218585;23;20461;-71
2022/10/30 03:57:26;;;;;;;26.70;12.45;;;;;;;;;;6193530;23;20012;-71
2022/10/30 03:59:52;;;;;;;27.48;12.55;;;;;;;;;;6218495;23;20066;-71
2022/10/30 04:02:18;;;;;;;21.50;11.27;;;;;;;;;;6218593;23;20023;-71
2022/10/30 04:04:44;;;;;;;27.13;12.15;;;;;;;;;;6218505;23;20048;-71
2022/10/30 04:07:10;;;;;;;20.20;11.35;;;;;;;;;;6218508;23;20020;-71
2022/10/30 04:09:36;;;;;;;19.88;10.38;;;;;;;;;;6193323;23;20020;-70
2022/10/30 04:12:02;;;;;;;23.83;11.05;;;;;;;;;;6193426;23;20494;-71
2022/10/30 04:14:28;;;;;;;26.67;11.65;;;;;;;;;;6218389;23;20410;-71
2022/10/30 04:16:54;;;;;;;24.25;11.93;;;;;;;;;;6218457;23;20009;-71
2022/10/30 04:19:20;;;;;;;29.70;12.20;;;;;;;;;;6218378;23;20038;-71
2022/10/30 04:21:48;;;;;;;25.95;12.13;;;;;;;;;;6245429;23;20016;-71
2022/10/30 04:24:17;;;;;;;23.60;11.57;;;;;;;;;;6218493;23;20012;-71
2022/10/30 04:26:43;;;;;;;20.38;11.27;;;;;;;;;;6218420;23;20016;-70
2022/10/30 04:29:09;;;;;;;21.08;10.45;;;;;;;;;;6218390;23;20051;-71
2022/10/30 04:31:35;;;;;;;30.40;12.05;;;;;;;;;;6245369;23;20023;-71
2022/10/30 04:34:01;;;;;;;24.33;10.98;;;;;;;;;;6218256;23;20016;-71
2022/10/30 04:36:31;;;;;;;20.20;11.52;;;;;;;;;;6218460;23;20012;-71
2022/10/30 04:38:58;;;;;;;23.73;11.48;;;;;;;;;;6194177;23;20087;-71
2022/10/30 04:41:24;;;;;;;19.33;11.00;;;;;;;;;;6218964;23;20008;-71
2022/10/30 04:43:50;;;;;;;26.65;11.48;;;;;;;;;;6246883;23;20023;-71
2022/10/30 04:46:16;;;;;;;25.17;11.93;;;;;;;;;;6220390;23;20020;-71
2022/10/30 04:48:43;;;;;;;25.77;11.80;;;;;;;;;;6247228;23;20016;-71
2022/10/30 04:51:10;;;;;;;27.27;11.93;;;;;;;;;;6220383;23;20047;-71
2022/10/30 04:53:37;;;;;;;21.88;11.13;;;;;;;;;;6220064;23;20019;-71
2022/10/30 04:56:03;;;;;;;25.80;11.57;;;;;;;;;;6220096;23;20012;-71
2022/10/30 04:58:29;;;;;;;19.80;10.43;;;;;;;;;;6220074;23;20016;-71
2022/10/30 05:00:55;;;;;;;24.17;11.27;;;;;;;;;;6220521;23;20016;-71
2022/10/30 05:03:22;;;;;;;20.45;10.45;;;;;;;;;;6220085;23;20016;-71
2022/10/30 05:05:55;;;;;;;26.83;11.32;;;;;;;;;;6220353;23;20073;-71
2022/10/30 05:08:21;;;;;;;18.60;10.88;;;;;;;;;;6220153;23;20020;-71
2022/10/30 05:10:47;;;;;;;19.63;9.98;;;;;;;;;;6220086;23;20046;-71
2022/10/30 05:13:13;;;;;;;22.73;11.25;;;;;;;;;;6220131;23;20016;-71
2022/10/30 05:15:39;;;;;;;23.00;11.10;;;;;;;;;;6219902;23;20031;-71
2022/10/30 05:18:05;;;;;;;25.13;11.52;;;;;;;;;;6220031;23;20012;-71
2022/10/30 05:20:31;;;;;;;18.75;10.90;;;;;;;;;;6219947;23;20084;-68
2022/10/30 05:22:58;;;;;;;25.10;11.07;;;;;;;;;;6195014;23;20011;-70
2022/10/30 05:25:25;;;;;;;20.23;10.77;;;;;;;;;;6219906;23;20338;-70
2022/10/30 05:27:56;;;;;;;24.38;11.43;;;;;;;;;;6219884;23;20031;-71
2022/10/30 05:30:22;;;;;;;26.13;11.70;;;;;;;;;;6219851;23;20020;-70
2022/10/30 05:32:48;;;;;;;21.02;11.35;;;;;;;;;;6219722;23;20028;-70
2022/10/30 05:35:14;;;;;;;28.25;11.05;;;;;;;;;;6220194;23;20418;-70
2022/10/30 05:37:40;;;;;;;25.08;11.13;;;;;;;;;;6220286;23;20016;-70
2022/10/30 05:40:07;;;;;;;27.58;11.77;;;;;;;;;;6219942;23;20013;-70
2022/10/30 05:42:33;;;;;;;28.67;12.18;;;;;;;;;;6195190;23;20016;-71
2022/10/30 05:44:59;;;;;;;21.65;11.60;;;;;;;;;;6220229;23;20023;-71
2022/10/30 05:47:25;;;;;;;25.33;11.77;;;;;;;;;;6220133;23;20556;-71
2022/10/30 05:49:51;;;;;;;24.33;11.50;;;;;;;;;;6220301;23;20035;-71
2022/10/30 05:52:17;;;;;;;24.23;11.73;;;;;;;;;;6220061;23;20031;-71
2022/10/30 05:54:43;;;;;;;28.33;11.13;;;;;;;;;;6194596;23;20020;-71
2022/10/30 05:57:09;;;;;;;19.15;11.98;;;;;;;;;;6220314;23;20385;-71
2022/10/30 05:59:35;;;;;;;25.48;11.52;;;;;;;;;;6220409;23;20050;-71
2022/10/30 06:02:01;;;;;;;24.55;12.10;;;;;;;;;;6220259;23;20008;-70
2022/10/30 06:04:27;;;;;;;30.48;12.18;;;;;;;;;;6220108;23;20019;-70
2022/10/30 06:06:53;;;;;;;22.20;11.98;;;;;;;;;;6220161;23;20016;-70
2022/10/30 06:09:19;;;;;;;23.73;11.43;;;;;;;;;;6218613;23;20083;-70
2022/10/30 06:11:46;;;;;;;27.50;11.57;;;;;;;;;;6219820;23;20070;-70
2022/10/30 06:14:12;;;;;;;23.48;12.40;;;;;;;;;;6192515;23;20462;-70
2022/10/30 06:16:50;;;;;;;24.98;12.07;;;;;;;;;;6216839;23;20462;-70
2022/10/30 06:19:19;;;;;;;26.57;11.67;;;;;;;;;;6191604;23;20409;-71
2022/10/30 06:21:48;;;;;;;20.65;12.35;;;;;;;;;;6215429;23;20042;-70
2022/10/30 06:24:15;;;;;;;23.95;11.95;;;;;;;;;;6167039;23;20054;-70
2022/10/30 06:26:49;;;;;;;25.67;13.02;;;;;;;;;;6217228;23;20015;-70
2022/10/30 06:29:16;;;;;;;27.63;12.30;;;;;;;;;;6216587;23;20008;-70
2022/10/30 06:31:42;;;;;;;28.42;11.57;;;;;;;;;;6166790;23;20047;-70
2022/10/30 06:34:17;;;;;;;35.45;12.88;;;;;;;;;;6192350;23;20012;-70
2022/10/30 06:36:44;;;;;;;26.92;11.50;;;;;;;;;;6216533;23;20333;-70
2022/10/30 06:39:17;;;;;;;21.75;10.85;;;;;;;;;;6166497;23;20458;-70
2022/10/30 06:41:55;;;;;;;23.95;10.52;;;;;;;;;;6219310;23;20012;-71
2022/10/30 06:44:24;;;;;;;23.33;11.32;;;;;;;;;;6194505;23;20054;-70
2022/10/30 06:46:52;;;;;;;23.38;10.38;;;;;;;;;;6194257;23;20048;-71
2022/10/30 06:49:18;;;;;;;15.20;9.68;;;;;;;;;;6219259;23;20016;-70
2022/10/30 06:51:45;;;;;;;18.48;10.90;;;;;;;;;;6218481;23;20019;-70
2022/10/30 06:54:15;;;;;;;24.80;10.65;;;;;;;;;;6194803;23;20395;-70
2022/10/30 06:56:48;;;;;;;17.05;10.82;;;;;;;;;;6219829;23;20434;-70
2022/10/30 06:59:14;;;;;;;18.88;10.50;;;;;;;;;;6193798;23;20008;-70
2022/10/30 07:02:13;;;;;;;20.27;9.70;;;;;;;;;;6169718;23;20039;-69
2022/10/30 07:04:35;;;;;;;22.73;11.23;;;;;;;;;;6215593;23;20099;-70
2022/10/30 07:07:07;;;;;;;20.67;10.75;;;;;;;;;;6194702;23;20023;-70
2022/10/30 07:09:36;;;;;;;17.50;10.35;;;;;;;;;;6195741;23;20020;-71
2022/10/30 07:12:02;;;;;;;23.92;11.23;;;;;;;;;;6196315;23;20020;-69
2022/10/30 07:14:35;;;;;;;24.55;12.15;;;;;;;;;;6222494;23;20099;-70
2022/10/30 07:17:04;;;;;;;24.73;12.75;;;;;;;;;;6223827;23;20015;-70
2022/10/30 07:19:30;;;;;;;28.35;13.02;;;;;;;;;;6218401;23;20066;-71
2022/10/30 07:21:56;;;;;;;24.33;12.20;;;;;;;;;;6246076;23;20334;-71
2022/10/30 07:24:22;;;;;;;22.65;12.32;;;;;;;;;;6194002;23;20472;-71
2022/10/30 07:26:49;;;;;;;24.48;12.10;;;;;;;;;;6193895;23;20016;-71
2022/10/30 07:29:15;;;;;;;24.00;12.27;;;;;;;;;;6219126;23;20023;-71
2022/10/30 07:31:42;;;;;;;29.65;13.10;;;;;;;;;;6218742;23;20469;-71
2022/10/30 07:34:08;;;;;;;23.30;13.18;;;;;;;;;;6218697;23;20122;-71
2022/10/30 07:36:37;;;;;;;25.63;13.13;;;;;;;;;;6218999;23;20016;-71
2022/10/30 07:39:07;;;;;;;27.33;13.45;;;;;;;;;;6194488;23;20012;-71
2022/10/30 07:41:33;;;;;;;30.40;13.77;;;;;;;;;;6245344;23;20023;-71
2022/10/30 07:43:59;;;;;;;25.27;12.60;;;;;;;;;;6217631;23;20020;-71
2022/10/30 07:46:25;;;;;;;32.10;13.52;;;;;;;;;;6218394;23;20035;-70
2022/10/30 07:48:51;;;;;;;28.48;13.30;;;;;;;;;;6217588;23;20091;-69
2022/10/30 07:51:17;;;;;;;36.97;16.00;;;;;;;;;;6218418;23;20016;-69
2022/10/30 07:53:43;;;;;;;29.35;13.93;;;;;;;;;;6218680;23;20095;-69
2022/10/30 07:56:09;;;;;;;33.53;15.27;;;;;;;;;;6218780;23;20034;-69
2022/10/30 07:58:36;;;;;;;22.30;13.15;;;;;;;;;;6219003;23;20018;-69
2022/10/30 08:01:03;;;;;;;40.10;14.90;;;;;;;;;;6244119;23;20012;-69
2022/10/30 08:03:29;;;;;;;28.75;13.63;;;;;;;;;;6245834;23;20439;-69
2022/10/30 08:05:58;;;;;;;29.02;14.98;;;;;;;;;;6217194;23;20016;-71
2022/10/30 08:08:32;;;;;;;30.30;15.02;;;;;;;;;;6194728;23;20074;-69
2022/10/30 08:10:59;;;;;;;27.23;14.52;;;;;;;;;;6194439;23;20327;-70
2022/10/30 08:13:25;;;;;;;31.90;14.52;;;;;;;;;;6193588;23;20087;-70
2022/10/30 08:15:54;;;;;;;28.15;14.07;;;;;;;;;;6218858;23;20039;-73
2022/10/30 08:18:27;;;;;;;30.42;13.75;;;;;;;;;;6220110;23;20016;-71
2022/10/30 08:20:53;;;;;;;32.22;15.18;;;;;;;;;;6220889;23;20012;-71
2022/10/30 08:23:25;;;;;;;28.85;14.20;;;;;;;;;;6221000;23;20015;-71
2022/10/30 08:25:51;;;;;;;25.38;13.75;;;;;;;;;;6221074;23;20019;-71
2022/10/30 08:28:18;;;;;;;28.75;14.30;;;;;;;;;;6220682;23;20020;-71
2022/10/30 08:30:44;;;;;;;30.02;14.63;;;;;;;;;;6220587;23;20020;-71
2022/10/30 08:33:14;;;;;;;30.48;14.85;;;;;;;;;;6195831;23;20016;-71
2022/10/30 08:35:50;;;;;;;26.67;14.43;;;;;;;;;;6220519;23;20047;-71
2022/10/30 08:38:17;;;;;;;41.05;13.88;;;;;;;;;;6221018;23;20016;-71
2022/10/30 08:40:43;;;;;;;31.42;14.77;;;;;;;;;;6220530;23;20012;-71
2022/10/30 08:43:09;;;;;;;30.98;15.40;;;;;;;;;;6221352;23;20461;-71
2022/10/30 08:45:35;;;;;;;29.13;15.43;;;;;;;;;;6196235;23;20070;-71
2022/10/30 08:48:03;;;;;;;31.73;14.93;;;;;;;;;;6221273;23;20020;-71
2022/10/30 08:50:29;;;;;;;32.15;14.70;;;;;;;;;;6247405;23;20016;-71
2022/10/30 08:52:55;;;;;;;26.33;14.65;;;;;;;;;;6220371;23;20020;-71
2022/10/30 08:55:22;;;;;;;33.38;14.90;;;;;;;;;;6219911;23;20027;-71
2022/10/30 08:57:48;;;;;;;31.50;15.10;;;;;;;;;;6220296;23;20058;-71
2022/10/30 09:00:14;;;;;;;31.67;14.35;;;;;;;;;;6246784;23;20019;-71
2022/10/30 09:02:40;;;;;;;27.60;13.38;;;;;;;;;;6219739;23;20023;-71
2022/10/30 09:05:07;;;;;;;29.45;15.00;;;;;;;;;;6220272;23;20024;-71
2022/10/30 09:07:34;;;;;;;26.65;14.10;;;;;;;;;;6220111;22;20421;-71
2022/10/30 09:10:00;;;;;;;29.65;14.60;;;;;;;;;;6247285;23;20012;-71
2022/10/30 09:12:26;;;;;;;31.55;15.48;;;;;;;;;;6194919;23;20020;-71
2022/10/30 09:14:52;;;;;;;32.03;14.30;;;;;;;;;;6219617;23;20342;-71
2022/10/30 09:17:18;;;;;;;32.05;14.93;;;;;;;;;;6195297;23;20016;-71
2022/10/30 09:19:44;;;;;;;30.27;15.05;;;;;;;;;;6219952;23;20012;-71
2022/10/30 09:22:10;;;;;;;30.00;14.40;;;;;;;;;;6220077;23;20324;-71
2022/10/30 09:24:38;;;;;;;33.65;14.30;;;;;;;;;;6220496;23;20015;-71
2022/10/30 09:27:05;;;;;;;29.67;15.40;;;;;;;;;;6220457;23;20020;-71
2022/10/30 09:29:31;;;;;;;28.88;13.65;;;;;;;;;;6220207;23;20070;-71
2022/10/30 09:31:57;;;;;;;31.73;14.88;;;;;;;;;;6220123;23;20027;-71
2022/10/30 09:34:23;;;;;;;29.88;14.48;;;;;;;;;;6246604;23;20497;-71
2022/10/30 09:36:50;;;;;;;30.38;14.70;;;;;;;;;;6219937;23;20016;-71
2022/10/30 09:39:16;;;;;;;24.35;13.25;;;;;;;;;;6219754;23;20016;-72
2022/10/30 09:41:42;;;;;;;26.73;13.80;;;;;;;;;;6219907;23;20019;-71
2022/10/30 09:44:11;;;;;;;22.73;12.93;;;;;;;;;;6219561;23;20047;-71
2022/10/30 09:46:55;;;;;;;30.73;14.07;;;;;;;;;;6246747;23;20492;-71
2022/10/30 09:49:24;;;;;;;37.50;15.73;;;;;;;;;;6246458;23;20012;-71
2022/10/30 09:52:09;;;;;;;27.65;13.85;;;;;;;;;;6194621;23;20012;-71
2022/10/30 09:54:44;;;;;;;29.67;13.70;;;;;;;;;;6219461;23;20016;-72
2022/10/30 09:57:14;;;;;;;24.60;13.70;;;;;;;;;;6219867;23;20454;-72
2022/10/30 09:59:49;;;;;;;29.08;14.20;;;;;;;;;;6219508;23;20023;-71
2022/10/30 10:02:16;;;;;;;33.10;14.82;;;;;;;;;;6219842;23;20134;-71
2022/10/30 10:04:43;;;;;;;28.60;12.30;;;;;;;;;;6219562;23;20091;-71
2022/10/30 10:07:30;;;;;;;28.40;13.38;;;;;;;;;;6219715;23;20039;-71
2022/10/30 10:10:00;;;;;;;27.42;13.88;;;;;;;;;;6219617;23;20066;-71
2022/10/30 10:12:33;;;;;;;24.48;14.15;;;;;;;;;;6246510;23;20013;-71
2022/10/30 10:14:59;;;;;;;;;;;;;;;;;;6218156;23;20020;-71
2022/10/30 10:17:31;;;;;;;28.98;12.95;;;;;;;;;;6219367;23;20344;-71
2022/10/30 10:20:00;;;;;;;;;;;;;;;;;;6220187;23;20008;-72
2022/10/30 10:22:33;;;;;;;29.63;12.02;;;;;;;;;;6194510;23;19911;-72
2022/10/30 10:24:59;;;;;;;25.67;12.35;;;;;;;;;;6219884;23;20020;-71
2022/10/30 10:27:34;;;;;;;28.63;13.20;;;;;;;;;;6219465;23;20020;-72
2022/10/30 10:30:03;;;;;;;29.65;13.20;;;;;;;;;;6219831;23;20316;-71
2022/10/30 10:32:32;;;;;;;20.67;12.00;;;;;;;;;;6219883;23;20073;-72
2022/10/30 10:35:16;;;;;;;28.73;12.38;;;;;;;;;;6218429;23;20087;-71
2022/10/30 10:38:05;;;;;;;30.83;13.25;;;;;;;;;;6219347;23;20066;-71
2022/10/30 10:40:39;;;;;;;24.98;12.45;;;;;;;;;;6219014;23;20085;-72
2022/10/30 10:43:24;;;;;;;28.08;11.88;;;;;;;;;;6219734;23;20016;-71
2022/10/30 10:46:09;;;;;;;26.73;11.88;;;;;;;;;;6219843;23;20012;-71
2022/10/30 10:48:41;;;;;;;30.80;12.43;;;;;;;;;;6219522;23;20012;-71
2022/10/30 10:51:14;;;;;;;26.88;12.90;;;17.50;99.90;;;;;;6219512;23;20019;-71
2022/10/30 10:53:43;;;;;;;36.63;12.43;;;;;;;;;;6194202;23;20024;-71
2022/10/30 10:56:09;;;;;;;22.88;12.25;;;;;;;;;;6217493;23;20024;-71
2022/10/30 10:58:38;;;;;;;20.58;11.38;;;;;;;;;;6218023;23;20393;-71
2022/10/30 11:01:05;;;;;;;31.77;12.10;;;;;;;;;;6217635;23;20023;-71
2022/10/30 11:03:31;;;;;;;24.40;12.05;;;;;;;;;;6219666;23;20342;-71
2022/10/30 11:06:30;;;;;;;31.80;12.23;;;;;;;;;;6219241;23;20477;-71
2022/10/30 11:09:18;;;;;;;27.60;11.55;;;;;;;;;;6154639;23;20342;-71
2022/10/30 11:11:45;;;;;;;23.05;11.73;;;;;;;;;;6219300;23;20023;-72
2022/10/30 11:14:16;;;;;;;25.30;11.48;;;;;;;;;;6219664;23;20020;-71
2022/10/30 11:16:58;;;;;;;27.48;12.38;;;;;;;;;;6219058;23;20122;-71
2022/10/30 11:19:25;;;;;;;19.17;11.40;;;;;;;;;;6219763;23;20012;-71
2022/10/30 11:21:52;;;;;;;27.10;11.27;;;;;;;;;;6194258;23;20016;-71
2022/10/30 11:24:26;;;;;;;27.40;10.98;;;;;;;;;;6246177;23;20079;-71
2022/10/30 11:26:52;;;;;;;21.50;9.35;;;;;;;;;;6219051;23;20338;-71
2022/10/30 11:29:23;;;;;;;26.92;10.68;;;;;;;;;;6219236;23;20448;-72
2022/10/30 11:32:00;;;;;;;27.33;10.20;;;;;;;;;;6219091;23;20074;-71
2022/10/30 11:34:29;;;;;;;27.08;10.07;;;;;;;;;;6194008;23;20320;-71
2022/10/30 11:36:56;;;;;;;23.65;9.52;;;;;;;;;;6219049;23;20039;-72
2022/10/30 11:39:32;;;;;;;21.58;9.10;;;;;;;;;;6219235;23;20048;-71
2022/10/30 11:42:16;;;;;;;22.63;9.63;;;;;;;;;;6218941;23;20051;-71
2022/10/30 11:44:42;;;;;;;24.02;10.32;;;;;;;;;;6218279;23;20020;-71
2022/10/30 11:47:10;;;;;;;22.80;10.77;;;;;;;;;;6218295;23;20012;-71
2022/10/30 11:50:01;;;;;;;23.98;9.80;;;18.90;99.90;;;;;;6219102;23;20024;-71
2022/10/30 11:52:27;;;;;;;25.52;10.35;;;;;;;;;;6219163;23;20154;-72
2022/10/30 11:55:10;;;;;;;28.42;9.43;;;;;;;;;;6194424;23;20020;-71
2022/10/30 11:57:43;;;;;;;22.80;9.80;;;;;;;;;;6219122;23;20094;-72
2022/10/30 12:00:20;;;;;;;21.35;8.60;;;;;;;;;;6218859;23;20337;-72
2022/10/30 12:02:50;;;;;;;33.33;10.10;;;;;;;;;;6218880;23;20008;-72
2022/10/30 12:05:25;;;;;;;24.05;8.30;;;;;;;;;;6194540;23;20091;-72
2022/10/30 12:07:51;;;;;;;18.55;8.00;;;;;;;;;;6218998;22;20515;-72
2022/10/30 12:10:40;;;;;;;19.50;7.82;;;;;;;;;;6218984;23;20042;-72
2022/10/30 12:13:06;;;;;;;16.25;7.40;;;;;;;;;;6218874;23;20073;-72
2022/10/30 12:15:36;;;;;;;17.48;8.00;;;;;;;;;;6218671;23;20023;-71
2022/10/30 12:18:06;;;;;;;16.08;8.48;;;;;;;;;;6218712;23;20029;-70
2022/10/30 12:20:33;;;;;;;17.27;7.55;;;;;;;;;;6218741;23;20043;-70
2022/10/30 12:23:08;;;;;;;15.85;7.07;;;;;;;;;;6218608;23;20375;-70
2022/10/30 12:25:34;;;;;;;15.20;7.18;;;;;;;;;;6245356;23;20016;-70
2022/10/30 12:28:00;;;;;;;22.67;7.80;;;;;;;;;;6218642;23;20020;-71
2022/10/30 12:30:28;;;;;;;16.38;6.22;;;;;;;;;;6218811;23;20450;-70
2022/10/30 12:32:54;;;;;;;18.08;6.57;;;;;;;;;;6245644;23;20012;-71
2022/10/30 12:35:24;;;;;;;15.48;5.63;;;;;;;;;;6218610;23;20020;-70
2022/10/30 12:37:53;;;;;;;16.80;6.00;;;;;;;;;;6217595;23;20138;-71
2022/10/30 12:40:29;;;;;;;12.23;5.43;;;;;;;;;;6245627;23;20020;-71
2022/10/30 12:43:00;;;;;;;12.32;5.50;;;;;;;;;;6218503;23;20022;-71
2022/10/30 12:45:36;;;;;;;18.03;6.00;;;;;;;;;;6218803;23;20035;-70
2022/10/30 12:48:11;;;;;;;15.25;5.50;;;;;;;;;;6218387;23;20016;-71
2022/10/30 12:50:42;;;;;;;15.27;7.03;;;;;;;;;;6218657;23;20406;-71
2022/10/30 12:53:16;;;;;;;24.33;6.75;;;;;;;;;;6218341;23;20024;-71
2022/10/30 12:55:47;;;;;;;16.55;6.55;;;;;;;;;;6218354;23;20462;-71
2022/10/30 12:58:32;;;;;;;18.50;6.20;;;;;;;;;;6218386;23;20091;-71
2022/10/30 13:00:58;;;;;;;16.33;6.82;;;;;;;;;;6218540;23;20433;-70
2022/10/30 13:03:44;;;;;;;14.18;6.97;;;;;;;;;;6218972;23;20015;-70
2022/10/30 13:06:18;;;;;;;13.10;6.07;;;;;;;;;;6219913;23;20023;-71
2022/10/30 13:08:50;;;;;;;20.35;7.13;;;;;;;;;;6220166;23;20027;-70
2022/10/30 13:11:16;;;;;;;;;;;;;;;;;;6221474;23;20071;-71
2022/10/30 13:13:45;;;;;;;18.73;7.32;;;;;;;;;;6220280;23;19937;-70
2022/10/30 13:16:16;;;;;;;14.75;7.75;;;;;;;;;;6219808;23;20048;-70
2022/10/30 13:18:42;;;;;;;21.52;7.15;;;;;;;;;;6218729;23;20019;-70
2022/10/30 13:21:11;;;;;;;21.90;7.65;;;;;;;;;;6219295;23;20012;-70
2022/10/30 13:24:34;;;;;;;19.58;7.50;;;19.30;99.90;;;;;;6215531;23;20343;-70
2022/10/30 13:27:04;;;;;;;18.23;7.28;;;;;;;;;;6159676;23;20023;-70
2022/10/30 13:29:30;;;;;;;16.25;7.63;;;;;;;;;;6218199;23;20573;-70
2022/10/30 13:32:02;;;;;;;19.35;9.38;;;;;;;;;;6219376;23;20512;-70
2022/10/30 13:34:31;;;;;;;17.65;9.02;;;;;;;;;;6218540;23;20161;-70
2022/10/30 13:37:16;;;;;;;24.50;9.63;;;19.10;99.90;;;;;;6218871;23;20447;-70
2022/10/30 13:39:51;;;;;;;18.75;7.78;;;;;;;;;;6220063;23;20019;-70
2022/10/30 13:42:33;;;;;;;18.55;9.23;;;;;;;;;;6220454;23;20012;-69
2022/10/30 13:44:59;;;;;;;21.38;8.63;;;;;;;;;;6221111;23;20078;-70
2022/10/30 13:47:25;;;;;;;19.80;9.30;;;;;;;;;;6221443;23;20064;-70
2022/10/30 13:50:12;;;;;;;24.20;10.95;;;19.30;99.90;;;;;;6221066;23;20016;-70
2022/10/30 13:52:40;;;;;;;24.33;9.75;;;;;;;;;;6220325;23;20024;-70
2022/10/30 13:55:17;;;;;;;17.92;9.25;;;;;;;;;;6219951;23;20020;-69
2022/10/30 13:57:46;;;;;;;20.65;9.27;;;;;;;;;;6220518;23;20016;-70
2022/10/30 14:00:24;;;;;;;18.58;9.45;;;;;;;;;;6220176;23;20264;-71
2022/10/30 14:03:10;;;;;;;17.80;8.73;;;;;;;;;;6220150;23;20016;-70
2022/10/30 14:05:36;;;;;;;21.70;9.88;;;;;;;;;;6220094;23;20020;-70
2022/10/30 14:08:15;;;;;;;23.50;10.55;;;19.10;99.90;;;;;;6219916;23;20055;-70
2022/10/30 14:10:45;;;;;;;25.33;10.57;;;;;;;;;;6219967;23;20338;-69
2022/10/30 14:13:16;;;;;;;26.17;10.18;;;;;;;;;;6219713;23;20024;-70
2022/10/30 14:15:43;;;;;;;23.27;9.80;;;;;;;;;;6218796;23;20351;-70
2022/10/30 14:18:13;;;;;;;25.92;9.85;;;;;;;;;;6219461;23;20020;-70
2022/10/30 14:20:39;;;;;;;22.30;10.38;;;;;;;;;;6219609;23;20077;-70
2022/10/30 14:23:15;;;;;;;28.75;11.05;;;19.00;99.90;;;;;;6246146;23;20031;-70
2022/10/30 14:25:42;;;;;;;31.63;10.77;;;;;;;;;;6219253;23;20018;-70
2022/10/30 14:28:21;;;;;;;27.15;10.85;;;;;;;;;;6219197;23;20020;-70
2022/10/30 14:30:47;;;;;;;18.95;10.30;;;;;;;;;;6219056;23;20023;-70